Time;durP1;ratioP1;P1;durP2;ratioP2;P2;SDS_P1;SDS_P2;PMS_P1;PMS_P2;Temp;Humidity;BMP_temperature;BMP_pressure;BME280_temperature;BME280_humidity;BME280_pressure;Samples;Min_cycle;Max_cycle;Signal;HPM_P1;HPM_P2
2022/05/23 00:01:27;;;;;;;3.20;1.23;;;;;;;;;;4973907;28;20027;-75
2022/05/23 00:03:53;;;;;;;9.15;1.20;;;;;;;;;;4973894;28;20066;-75
2022/05/23 00:06:20;;;;;;;3.15;1.05;;;;;;;;;;4973220;28;20034;-74
2022/05/23 00:08:46;;;;;;;5.55;1.27;;;;;;;;;;4973750;28;20042;-74
2022/05/23 00:11:12;;;;;;;6.25;1.50;;;;;;;;;;4973905;28;20022;-75
2022/05/23 00:13:38;;;;;;;5.05;1.10;;;;;;;;;;4973718;28;20026;-75
2022/05/23 00:16:16;;;;;;;3.63;1.23;;;;;;;;;;4973714;28;20390;-75
2022/05/23 00:18:42;;;;;;;7.40;1.25;;;;;;;;;;4973874;28;20029;-75
2022/05/23 00:21:08;;;;;;;4.97;1.63;;;;;;;;;;4973578;28;20110;-74
2022/05/23 00:23:34;;;;;;;7.95;1.45;;;;;;;;;;4973554;28;20102;-74
2022/05/23 00:26:00;;;;;;;2.78;1.10;;;;;;;;;;4974076;28;20484;-75
2022/05/23 00:28:26;;;;;;;4.63;1.25;;;;;;;;;;4973518;28;20686;-74
2022/05/23 00:30:52;;;;;;;7.53;1.23;;;;;;;;;;4974072;28;20106;-75
2022/05/23 00:36:03;;;;;;;4.07;1.35;;;;;;;;;;4976340;28;20126;-75
2022/05/23 00:38:29;;;;;;;5.97;1.25;;;;;;;;;;4977093;28;20046;-75
2022/05/23 00:43:51;;;;;;;7.85;1.10;;;;;;;;;;4977702;28;20175;-75
2022/05/23 00:46:17;;;;;;;6.07;1.40;;;;;;;;;;4977417;28;20046;-74
2022/05/23 00:48:43;;;;;;;4.18;1.40;;;;;;;;;;4977008;28;20470;-74
2022/05/23 00:51:14;;;;;;;5.75;1.30;;;;;;;;;;4977518;28;20038;-74
2022/05/23 00:53:42;;;;;;;2.97;1.05;;;;;;;;;;4977151;28;20074;-75
2022/05/23 00:56:10;;;;;;;2.78;1.23;;;;;;;;;;4977180;28;20377;-75
2022/05/23 00:58:39;;;;;;;5.18;1.10;;;;;;;;;;4977154;28;20454;-75
2022/05/23 01:01:07;;;;;;;3.47;1.20;;;;;;;;;;4977204;28;20409;-74
2022/05/23 01:03:33;;;;;;;5.03;1.35;;;;;;;;;;4977159;28;20689;-75
2022/05/23 01:06:00;;;;;;;5.13;1.20;;;;;;;;;;4977462;28;20027;-75
2022/05/23 01:08:26;;;;;;;4.35;1.10;;;;;;;;;;4976884;28;20035;-75
2022/05/23 01:10:52;;;;;;;7.13;1.05;;;;;;;;;;4976762;28;20474;-75
2022/05/23 01:13:18;;;;;;;7.72;1.17;;;;;;;;;;4976880;28;20027;-75
2022/05/23 01:15:46;;;;;;;4.70;1.08;;;;;;;;;;4977174;28;20019;-75
2022/05/23 01:18:12;;;;;;;3.58;1.25;;;;;;;;;;4977017;28;20030;-75
2022/05/23 01:20:38;;;;;;;5.90;1.67;;;;;;;;;;4976756;28;20465;-75
2022/05/23 01:23:23;;;;;;;4.72;1.20;;;;;;;;;;4976901;28;20029;-75
2022/05/23 01:25:49;;;;;;;5.32;1.88;;;;;;;;;;4976952;28;20031;-75
2022/05/23 01:28:16;;;;;;;3.55;1.40;;;;;;;;;;4976491;28;20031;-75
2022/05/23 01:30:42;;;;;;;4.82;1.15;;;;;;;;;;4976982;28;20018;-75
2022/05/23 01:33:09;;;;;;;6.68;1.58;;;;;;;;;;4976761;28;20058;-75
2022/05/23 01:35:36;;;;;;;5.38;1.45;;;;;;;;;;4977064;28;20031;-75
2022/05/23 01:38:03;;;;;;;5.07;1.60;;;;;;;;;;4976655;28;20117;-75
2022/05/23 01:40:29;;;;;;;2.90;1.40;;;;;;;;;;4976613;28;20027;-75
2022/05/23 01:42:56;;;;;;;4.88;1.55;;;;;;;;;;4976258;28;20504;-75
2022/05/23 01:45:23;;;;;;;6.18;1.67;;;;;;;;;;4976283;28;20042;-75
2022/05/23 01:47:49;;;;;;;2.42;1.15;;;;;;;;;;4976304;28;20031;-75
2022/05/23 01:50:16;;;;;;;3.58;1.27;;;;;;;;;;4976000;28;20476;-75
2022/05/23 01:52:42;;;;;;;3.33;1.20;;;;;;;;;;4976408;28;20086;-75
2022/05/23 01:55:08;;;;;;;5.32;1.48;;;;;;;;;;4976454;28;20365;-75
2022/05/23 01:57:34;;;;;;;4.40;2.08;;;;;;;;;;4976639;28;20047;-75
2022/05/23 02:02:47;;;;;;;4.53;1.30;;;;;;;;;;4975919;28;20098;-75
2022/05/23 02:05:15;;;;;;;9.57;2.10;;;;;;;;;;4976252;28;20058;-75
2022/05/23 02:07:41;;;;;;;6.82;1.60;;;;;;;;;;4975788;28;20053;-75
2022/05/23 02:10:07;;;;;;;9.27;2.33;;;;;;;;;;4976216;28;20042;-75
2022/05/23 02:12:33;;;;;;;4.35;1.73;;;;;;;;;;4976058;28;20019;-75
2022/05/23 02:15:00;;;;;;;6.57;1.55;;;;;;;;;;4975976;28;20077;-75
2022/05/23 02:17:26;;;;;;;6.95;1.63;;;;;;;;;;4975969;28;20027;-75
2022/05/23 02:19:52;;;;;;;4.18;1.40;;;;;;;;;;4975960;28;20085;-75
2022/05/23 02:22:18;;;;;;;5.72;1.98;;;;;;;;;;4975960;28;20035;-75
2022/05/23 02:24:44;;;;;;;4.07;1.77;;;;;;;;;;4976213;28;20034;-75
2022/05/23 02:27:10;;;;;;;4.47;1.55;;;;;;;;;;4975503;28;20517;-75
2022/05/23 02:29:36;;;;;;;4.95;1.88;;;;;;;;;;4975767;28;20023;-75
2022/05/23 02:32:02;;;;;;;3.85;1.80;;;;;;;;;;4975612;28;20086;-75
2022/05/23 02:34:28;;;;;;;4.38;1.70;;;;;;;;;;4975900;28;20034;-75
2022/05/23 02:36:55;;;;;;;2.83;1.50;;;;;;;;;;4975399;28;20031;-75
2022/05/23 02:39:21;;;;;;;3.47;1.40;;;;;;;;;;4975552;28;20105;-75
2022/05/23 02:41:48;;;;;;;4.50;1.63;;;;;;;;;;4975434;28;20481;-75
2022/05/23 02:44:14;;;;;;;6.45;1.85;;;;;;;;;;4975443;28;20066;-74
2022/05/23 02:46:40;;;;;;;5.55;1.67;;;;;;;;;;4975572;28;20029;-75
2022/05/23 02:49:06;;;;;;;5.10;1.67;;;;;;;;;;4974716;28;20181;-75
2022/05/23 02:51:33;;;;;;;5.65;1.77;;;;;;;;;;4975241;28;20031;-75
2022/05/23 02:53:59;;;;;;;5.00;1.70;;;;;;;;;;4975329;28;20369;-75
2022/05/23 02:56:25;;;;;;;4.78;1.65;;;;;;;;;;4975360;28;20026;-75
2022/05/23 02:58:51;;;;;;;5.53;2.15;;;;;;;;;;4975077;28;20035;-75
2022/05/23 03:01:19;;;;;;;5.57;1.73;;;;;;;;;;4975424;28;20408;-75
2022/05/23 03:03:45;;;;;;;6.82;1.55;;;;;;;;;;4975461;28;20023;-75
2022/05/23 03:06:11;;;;;;;7.75;1.73;;;;;;;;;;4975152;28;20527;-75
2022/05/23 03:08:38;;;;;;;4.20;1.70;;;;;;;;;;4975157;28;20114;-75
2022/05/23 03:11:05;;;;;;;6.97;1.80;;;;;;;;;;4975158;28;20045;-75
2022/05/23 03:13:31;;;;;;;7.93;1.60;;;;;;;;;;4975160;28;20027;-75
2022/05/23 03:15:58;;;;;;;6.22;1.70;;;;;;;;;;4974593;28;20018;-75
2022/05/23 03:18:24;;;;;;;7.78;2.00;;;;;;;;;;4975066;28;20383;-75
2022/05/23 03:20:57;;;;;;;4.45;1.70;;;;;;;;;;4974708;28;20038;-75
2022/05/23 03:28:53;;;;;;;6.13;1.90;;;;;;;;;;4974937;28;20157;-75
2022/05/23 03:31:19;;;;;;;7.60;1.92;;;;;;;;;;4974767;28;20041;-75
2022/05/23 03:33:45;;;;;;;6.65;2.10;;;;;;;;;;4974568;28;20081;-75
2022/05/23 03:36:11;;;;;;;6.03;2.10;;;;;;;;;;4974583;28;20113;-75
2022/05/23 03:38:37;;;;;;;8.23;1.70;;;;;;;;;;4974926;28;20473;-75
2022/05/23 03:41:07;;;;;;;4.47;1.90;;;;;;;;;;4974323;28;20442;-75
2022/05/23 03:43:33;;;;;;;3.92;1.60;;;;;;;;;;4957485;28;20147;-75
2022/05/23 03:46:06;;;;;;;6.57;2.38;;;;;;;;;;4974513;28;20034;-75
2022/05/23 03:48:32;;;;;;;6.03;2.00;;;;;;;;;;4974028;28;20022;-75
2022/05/23 03:50:59;;;;;;;8.13;2.10;;;;;;;;;;4974480;28;20032;-75
2022/05/23 03:53:25;;;;;;;4.45;1.85;;;;;;;;;;4974499;28;20094;-75
2022/05/23 03:55:52;;;;;;;2.85;1.85;;;;;;;;;;4974228;28;20022;-75
2022/05/23 03:58:18;;;;;;;5.38;2.00;;;;;;;;;;4974534;28;20034;-75
2022/05/23 04:00:49;;;;;;;9.18;2.58;;;;;;;;;;4974311;28;20039;-75
2022/05/23 04:03:15;;;;;;;7.80;2.35;;;;;;;;;;4974544;28;20046;-75
2022/05/23 04:05:41;;;;;;;5.75;1.92;;;;;;;;;;4974472;28;20033;-75
2022/05/23 04:08:08;;;;;;;9.60;2.33;;;;;;;;;;4974160;28;20023;-75
2022/05/23 04:10:34;;;;;;;4.57;2.28;;;;;;;;;;4976595;28;20034;-75
2022/05/23 04:13:02;;;;;;;5.68;2.35;;;;;;;;;;4978289;28;20494;-75
2022/05/23 04:15:28;;;;;;;8.05;2.55;;;;;;;;;;4978410;28;20026;-75
2022/05/23 04:17:54;;;;;;;5.60;2.30;;;;;;;;;;4978248;28;20054;-75
2022/05/23 04:20:21;;;;;;;6.03;2.13;;;;;;;;;;4977858;28;20490;-75
2022/05/23 04:22:47;;;;;;;5.05;2.60;;;;;;;;;;4978338;28;20033;-75
2022/05/23 04:25:13;;;;;;;4.95;2.35;;;;;;;;;;4978138;28;20385;-75
2022/05/23 04:27:39;;;;;;;13.98;2.95;;;;;;;;;;4977797;28;20027;-75
2022/05/23 04:30:06;;;;;;;6.30;2.83;;;;;;;;;;4978014;28;20023;-75
2022/05/23 04:35:17;;;;;;;4.38;2.22;;;;;;;;;;4978405;28;20046;-75
2022/05/23 04:37:48;;;;;;;5.28;2.50;;;;;;;;;;4978102;28;20042;-75
2022/05/23 04:40:16;;;;;;;8.45;2.75;;;;;;;;;;4960283;28;20085;-75
2022/05/23 04:42:42;;;;;;;10.60;3.08;;;;;;;;;;4977732;28;20022;-74
2022/05/23 04:45:09;;;;;;;5.82;3.00;;;;;;;;;;4977835;28;20026;-75
2022/05/23 04:50:20;;;;;;;6.18;2.65;;;;;;;;;;4977501;28;20058;-75
2022/05/23 04:52:47;;;;;;;9.63;2.60;;;;;;;;;;4977722;28;20030;-75
2022/05/23 04:55:14;;;;;;;8.98;2.80;;;;;;;;;;4977626;28;20366;-75
2022/05/23 04:57:40;;;;;;;6.35;2.55;;;;;;;;;;4977526;28;20109;-75
2022/05/23 05:00:07;;;;;;;5.32;3.20;;;;;;;;;;4977590;28;20063;-75
2022/05/23 05:02:35;;;;;;;7.30;2.60;;;;;;;;;;4977338;28;20027;-75
2022/05/23 05:05:01;;;;;;;8.70;2.88;;;;;;;;;;4977582;28;20026;-75
2022/05/23 05:07:27;;;;;;;10.15;3.30;;;;;;;;;;4977620;28;20450;-75
2022/05/23 05:09:53;;;;;;;7.93;3.00;;;;;;;;;;4977321;28;20023;-75
2022/05/23 05:12:19;;;;;;;17.60;3.58;;;;;;;;;;4977255;28;20389;-75
2022/05/23 05:14:45;;;;;;;7.25;3.10;;;;;;;;;;4977359;28;20027;-75
2022/05/23 05:17:11;;;;;;;9.15;3.03;;;;;;;;;;4977147;28;20030;-75
2022/05/23 05:19:37;;;;;;;8.00;3.00;;;;;;;;;;4977080;28;20466;-75
2022/05/23 05:22:03;;;;;;;8.25;3.25;;;;;;;;;;4976728;28;20157;-75
2022/05/23 05:24:32;;;;;;;9.45;2.78;;;;;;;;;;4977034;28;20458;-75
2022/05/23 05:26:58;;;;;;;7.30;3.05;;;;;;;;;;4976816;28;20019;-75
2022/05/23 05:29:24;;;;;;;14.18;3.20;;;;;;;;;;4976952;28;20074;-75
2022/05/23 05:31:53;;;;;;;8.45;3.05;;;;;;;;;;4959414;28;20019;-75
2022/05/23 05:34:22;;;;;;;10.43;3.05;;;;;;;;;;4977017;28;20086;-75
2022/05/23 05:36:50;;;;;;;14.88;3.10;;;;;;;;;;4976589;28;20031;-75
2022/05/23 05:39:17;;;;;;;9.50;3.60;;;;;;;;;;4976169;28;20524;-76
2022/05/23 05:41:46;;;;;;;6.78;3.00;;;;;;;;;;4976560;28;20055;-75
2022/05/23 05:44:14;;;;;;;9.50;2.90;;;;;;;;;;4976390;28;20031;-75
2022/05/23 05:46:42;;;;;;;4.97;3.20;;;;;;;;;;4976422;28;20328;-75
2022/05/23 05:49:11;;;;;;;7.15;3.17;;;;;;;;;;4956182;29;20094;-75
2022/05/23 05:51:38;;;;;;;8.95;3.00;;;;;;;;;;4957068;28;20028;-75
2022/05/23 05:54:05;;;;;;;7.97;3.20;;;;;;;;;;4957263;29;20476;-75
2022/05/23 05:56:31;;;;;;;9.70;2.88;;;;;;;;;;4956709;28;20038;-75
2022/05/23 05:58:58;;;;;;;9.00;3.45;;;;;;;;;;4956976;29;20027;-75
2022/05/23 06:01:24;;;;;;;6.30;3.50;;;;;;;;;;4956654;28;20047;-75
2022/05/23 06:03:51;;;;;;;9.95;3.58;;;;;;;;;;4956500;29;20074;-75
2022/05/23 06:11:46;;;;;;;6.72;3.33;;;;;;;;;;4956942;29;20102;-76
2022/05/23 06:14:12;;;;;;;8.00;4.45;;;;;;;;;;4956459;29;20458;-76
2022/05/23 06:16:38;;;;;;;9.50;3.80;;;;;;;;;;4947232;28;20073;-76
2022/05/23 06:19:05;;;;;;;6.85;3.42;;;;;;;;;;4948010;29;20770;-77
2022/05/23 06:21:31;;;;;;;7.85;4.10;;;;;;;;;;4951883;29;20592;-76
2022/05/23 06:23:58;;;;;;;8.18;3.65;;;;;;;;;;4949254;28;20391;-76
2022/05/23 06:26:26;;;;;;;8.13;3.80;;;;;;;;;;4948871;29;20034;-76
2022/05/23 06:28:52;;;;;;;8.15;3.33;;;;;;;;;;4954021;29;20362;-76
2022/05/23 06:31:19;;;;;;;7.18;3.67;;;;;;;;;;4947743;29;20028;-76
2022/05/23 06:33:45;;;;;;;7.97;3.53;;;;;;;;;;4950402;28;20038;-76
2022/05/23 06:36:12;;;;;;;7.25;3.65;;;;;;;;;;4951006;28;20050;-75
2022/05/23 06:38:38;;;;;;;6.97;3.40;;;;;;;;;;4948317;28;20042;-77
2022/05/23 06:41:06;;;;;;;7.85;3.97;;;;;;;;;;4952202;28;21008;-76
2022/05/23 06:43:32;;;;;;;9.45;4.05;;;;;;;;;;4952340;29;20063;-76
2022/05/23 06:45:59;;;;;;;7.65;3.75;;;;;;;;;;4942975;29;20467;-76
2022/05/23 06:48:25;;;;;;;6.07;2.90;;;;;;;;;;4940364;28;20031;-76
2022/05/23 06:50:52;;;;;;;6.75;3.00;;;;;;;;;;4956074;28;20043;-76
2022/05/23 06:53:21;;;;;;;7.95;3.10;;;;;;;;;;4957422;28;20055;-77
2022/05/23 06:55:48;;;;;;;5.43;3.20;;;;;;;;;;4960929;28;20106;-77
2022/05/23 06:58:14;;;;;;;7.05;3.35;;;;;;;;;;4963015;28;20102;-74
2022/05/23 07:00:40;;;;;;;7.80;3.35;;;;;;;;;;4965009;28;20023;-75
2022/05/23 07:03:07;;;;;;;5.55;2.97;;;;;;;;;;4955181;28;20363;-76
2022/05/23 07:13:50;;;;;;;11.80;3.03;;;;;;;;;;4960148;28;20498;-77
2022/05/23 07:16:17;;;;;;;7.18;3.22;;;;;;;;;;4966904;28;20035;-77
2022/05/23 07:18:44;;;;;;;4.47;2.50;;;;;;;;;;4964788;28;20478;-77
2022/05/23 07:21:10;;;;;;;10.30;2.97;;;;;;;;;;4957773;28;20444;-76
2022/05/23 07:23:36;;;;;;;8.07;3.53;;;;;;;;;;4969259;28;20031;-78
2022/05/23 07:26:08;;;;;;;8.55;2.70;;;;;;;;;;4948812;28;20035;-77
2022/05/23 07:28:35;;;;;;;7.63;2.70;;;;;;;;;;4958007;28;20030;-76
2022/05/23 07:31:02;;;;;;;8.27;2.95;;;;;;;;;;4959587;28;20489;-76
2022/05/23 07:33:28;;;;;;;5.28;2.67;;;;;;;;;;4957894;28;20033;-76
2022/05/23 07:35:55;;;;;;;8.82;3.10;;;;;;;;;;4954813;28;20122;-76
2022/05/23 07:38:21;;;;;;;5.65;2.65;;;;;;;;;;4970412;28;20046;-76
2022/05/23 07:40:51;;;;;;;5.13;2.65;;;;;;;;;;4965628;28;20610;-76
2022/05/23 07:43:17;;;;;;;5.75;2.67;;;;;;;;;;4963627;28;20481;-77
2022/05/23 07:45:43;;;;;;;7.88;2.50;;;;;;;;;;4960085;28;20505;-76
2022/05/23 07:48:09;;;;;;;5.20;2.55;;;;;;;;;;4958878;28;20057;-76
2022/05/23 07:50:35;;;;;;;6.00;2.45;;;;;;;;;;4973163;28;20129;-76
2022/05/23 08:01:15;;;;;;;5.28;2.38;;;;;;;;;;4974089;28;20030;-75
2022/05/23 08:03:42;;;;;;;4.25;2.30;;;;;;;;;;4973950;28;20082;-76
2022/05/23 08:06:11;;;;;;;6.80;2.60;;;;;;;;;;4973863;28;20027;-76
2022/05/23 08:08:37;;;;;;;6.75;2.58;;;;;;;;;;4973816;28;20026;-75
2022/05/23 08:11:08;;;;;;;6.20;2.25;;;;;;;;;;4973809;28;20370;-74
2022/05/23 08:13:34;;;;;;;8.73;2.50;;;;;;;;;;4973503;28;20381;-75
2022/05/23 08:16:00;;;;;;;4.50;2.30;;;;;;;;;;4956288;28;20034;-76
2022/05/23 08:18:26;;;;;;;4.95;2.53;;;;;;;;;;4973896;28;20035;-76
2022/05/23 08:20:52;;;;;;;8.32;2.75;;;;;;;;;;4963504;28;20038;-75
2022/05/23 08:23:18;;;;;;;6.70;2.92;;;;;;;;;;4954678;29;20023;-75
2022/05/23 08:25:44;;;;;;;9.05;3.00;;;;;;;;;;4954733;29;20331;-75
2022/05/23 08:28:10;;;;;;;6.22;2.20;;;;;;;;;;4954581;29;20115;-76
2022/05/23 08:30:37;;;;;;;5.57;2.50;;;;;;;;;;4954607;29;20028;-75
2022/05/23 08:33:03;;;;;;;7.30;2.70;;;;;;;;;;4954616;29;20027;-76
2022/05/23 08:35:29;;;;;;;5.50;2.33;;;;;;;;;;4954855;29;20023;-76
2022/05/23 08:37:55;;;;;;;6.07;2.35;;;;;;;;;;4954352;29;20032;-76
2022/05/23 08:40:22;;;;;;;6.85;3.00;;;;;;;;;;4954415;29;20436;-75
2022/05/23 08:42:55;;;;;;;5.55;2.53;;;;;;;;;;4954458;29;20023;-76
2022/05/23 08:45:23;;;;;;;7.72;2.70;;;;;;;;;;4954386;29;20024;-76
2022/05/23 08:48:12;;;;;;;6.22;2.53;;;;;;;;;;4954458;29;20086;-76
2022/05/23 08:50:53;;;;;;;6.20;2.40;;;;;;;;;;4954012;29;20394;-75
2022/05/23 08:53:31;;;;;;;5.57;2.40;;;;;;;;;;4954101;28;20038;-77
2022/05/23 08:56:01;;;;;;;6.53;3.47;;;;;;;;;;4967170;28;20027;-76
2022/05/23 08:58:31;;;;;;;8.85;2.83;;;;;;;;;;4964287;28;20465;-75
2022/05/23 09:00:59;;;;;;;6.78;2.78;;;;;;;;;;4949073;28;20034;-76
2022/05/23 09:03:26;;;;;;;5.05;2.45;;;;;;;;;;4963561;28;20031;-75
2022/05/23 09:05:56;;;;;;;12.93;2.95;;;;;;;;;;4964771;28;20062;-75
2022/05/23 09:08:23;;;;;;;7.22;2.40;;;;;;;;;;4964912;28;20031;-76
2022/05/23 09:10:57;;;;;;;7.43;2.70;;;;;;;;;;4973570;28;20023;-74
2022/05/23 09:13:26;;;;;;;5.90;2.42;;;;;;;;;;4976004;28;20019;-74
2022/05/23 09:15:54;;;;;;;10.30;2.75;;;;;;;;;;4976409;28;20018;-73
2022/05/23 09:18:24;;;;;;;7.45;2.70;;;;;;;;;;4976246;28;20061;-75
2022/05/23 09:20:51;;;;;;;8.60;2.90;;;;;;;;;;4955593;28;20050;-75
2022/05/23 09:23:24;;;;;;;8.30;2.83;;;;;;;;;;4975940;28;20019;-76
2022/05/23 09:25:51;;;;;;;6.43;2.97;;;;;;;;;;4976314;28;20022;-75
2022/05/23 09:28:30;;;;;;;15.30;2.80;;;;;;;;;;4975513;28;20027;-74
2022/05/23 09:31:19;;;;;;;8.23;2.85;;;;;;;;;;4958308;28;20236;-74
2022/05/23 09:33:50;;;;;;;7.63;2.85;;;;;;;;;;4877982;29;20037;-74
2022/05/23 09:36:16;;;;;;;8.00;3.50;;;;;;;;;;4878279;29;20497;-73
2022/05/23 09:38:47;;;;;;;12.65;3.53;;;;;;;;;;4878387;29;20041;-74
2022/05/23 09:47:44;;;;;;;9.57;3.05;;;;;;;;;;4878661;29;20032;-76
2022/05/23 09:49:48;;;;;;;7.43;3.13;;;;;;;;;;4878727;29;20493;-76
2022/05/23 09:52:18;;;;;;;7.20;3.33;;;;;;;;;;4882386;29;20072;-76
2022/05/23 09:54:47;;;;;;;6.38;3.03;;;;;;;;;;4878903;29;20053;-76
2022/05/23 09:57:16;;;;;;;4.78;2.72;;;;;;;;;;4893236;29;20064;-76
2022/05/23 09:59:42;;;;;;;7.60;3.28;;;;;;;;;;4879981;29;20025;-78
2022/05/23 10:02:27;;;;;;;8.00;3.30;;;;;;;;;;4888316;29;20044;-76
2022/05/23 10:04:53;;;;;;;8.70;3.10;;;;;;;;;;4876095;29;20131;-75
2022/05/23 10:07:21;;;;;;;10.05;3.65;;;;;;;;;;4888506;29;20120;-76
2022/05/23 10:09:58;;;;;;;11.70;3.38;;;;;;;;;;4893789;28;20413;-76
2022/05/23 10:12:24;;;;;;;10.85;3.55;;;;;;;;;;4969170;28;20026;-76
2022/05/23 10:14:52;;;;;;;13.25;3.95;;;;;;;;;;4971414;28;20029;-76
2022/05/23 10:17:26;;;;;;;11.50;3.97;;;;;;;;;;4966414;28;20342;-75
2022/05/23 10:19:53;;;;;;;5.95;3.40;;;;;;;;;;4958976;28;20019;-78
2022/05/23 10:22:25;;;;;;;7.50;3.47;;;;;;;;;;4972257;28;20335;-76
2022/05/23 10:24:56;;;;;;;5.82;3.10;;;;;;;;;;4976266;28;20099;-77
2022/05/23 10:27:42;;;;;;;6.80;3.10;;;;;;;;;;4975523;28;20054;-76
2022/05/23 10:30:09;;;;;;;11.30;3.45;;;;;;;;;;4975539;28;20302;-75
2022/05/23 10:32:41;;;;;;;7.00;3.03;;;;;;;;;;4975736;28;20038;-76
2022/05/23 10:35:26;;;;;;;7.82;3.05;;;;;;;;;;4976253;28;20061;-76
2022/05/23 10:37:52;;;;;;;7.47;2.90;;;;;;;;;;4975266;28;20031;-77
2022/05/23 10:43:07;;;;;;;12.32;3.70;;;;;;;;;;4974111;28;20045;-76
2022/05/23 10:45:46;;;;;;;6.03;2.60;;;;;;;;;;4975081;28;20097;-76
2022/05/23 10:48:31;;;;;;;10.02;3.53;;;;;;;;;;4975005;28;20026;-76
2022/05/23 10:51:00;;;;;;;7.38;3.47;;;;;;;;;;4975006;28;20053;-76
2022/05/23 10:53:37;;;;;;;11.15;3.15;;;;;;;;;;4975511;28;20098;-76
2022/05/23 10:56:06;;;;;;;6.63;2.60;;;;;;;;;;4975475;28;20087;-76
2022/05/23 10:58:50;;;;;;;8.77;3.40;;;;;;;;;;4975448;28;20078;-76
2022/05/23 11:01:17;;;;;;;6.65;2.72;;;;;;;;;;4975736;28;20074;-76
2022/05/23 11:03:53;;;;;;;11.23;3.30;;;;;;;;;;4957917;28;20035;-76
2022/05/23 11:06:30;;;;;;;5.97;2.90;;;;;;;;;;4958749;28;20031;-76
2022/05/23 11:09:03;;;;;;;8.32;3.10;;;;;;;;;;4970196;28;20027;-76
2022/05/23 11:11:28;;;;;;;;;;;;;;;;;;4975731;28;20158;-76
2022/05/23 11:14:13;;;;;;;7.75;2.97;;;;;;;;;;4974726;28;19985;-76
2022/05/23 11:17:06;;;;;;;7.55;3.92;;;;;;;;;;4975147;28;20030;-76
2022/05/23 11:19:33;;;;;;;5.53;2.80;;;;;;;;;;4974613;28;20027;-77
2022/05/23 11:21:59;;;;;;;6.97;2.90;;;;;;;;;;4974943;28;20062;-76
2022/05/23 11:24:28;;;;;;;6.72;3.00;;;;;;;;;;4968723;28;20031;-76
2022/05/23 11:33:41;;;;;;;6.78;2.53;;;;;;;;;;4974564;28;20034;-76
2022/05/23 11:35:23;;;;;;;5.95;2.78;;;;;;;;;;4963362;28;20045;-77
2022/05/23 11:37:50;;;;;;;7.30;2.90;;;;;;;;;;4972045;28;20106;-77
2022/05/23 11:40:28;;;;;;;5.22;2.78;;;;;;;;;;4974550;28;20023;-77
2022/05/23 11:42:55;;;;;;;8.68;3.53;;;;;;;;;;4955382;29;20462;-77
2022/05/23 11:48:40;;;;;;;6.35;3.63;;;;;;;;;;4955797;29;20054;-77
2022/05/23 11:51:10;;;;;;;10.82;3.50;;;;;;;;;;4959376;28;20098;-77
2022/05/23 11:53:38;;;;;;;10.70;3.13;;;;;;;;;;4974599;28;20053;-77
2022/05/23 11:56:09;;;;;;;5.45;2.65;;;;;;;;;;4974005;28;20023;-77
2022/05/23 11:58:49;;;;;;;6.35;3.10;;;;;;;;;;4973768;28;20509;-78
2022/05/23 12:01:14;;;;;;;5.18;3.50;;;;;;;;;;4973105;28;20122;-77
2022/05/23 12:03:54;;;;;;;10.90;3.50;;;;;;;;;;4973265;28;20101;-78
2022/05/23 12:06:35;;;;;;;11.30;3.95;;;;;;;;;;4973055;28;20073;-81
2022/05/23 12:09:03;;;;;;;8.70;3.95;;;;;;;;;;4955078;28;20031;-76
2022/05/23 12:11:37;;;;;;;8.20;3.72;;;;;;;;;;4971564;28;20469;-76
2022/05/23 12:14:12;;;;;;;9.15;3.20;;;;;;;;;;4972266;28;20153;-77
2022/05/23 12:16:42;;;;;;;10.02;3.15;;;;;;;;;;4972299;28;20018;-76
2022/05/23 12:19:21;;;;;;;8.15;3.20;;;;;;;;;;4971580;28;20898;-76
2022/05/23 12:21:48;;;;;;;9.95;3.70;;;;;;;;;;4970779;28;20485;-77
2022/05/23 12:24:28;;;;;;;7.53;3.83;;;;;;;;;;4968713;28;20074;-76
2022/05/23 12:26:55;;;;;;;5.82;3.03;;;;;;;;;;4957355;28;20110;-77
2022/05/23 12:29:24;;;;;;;10.70;3.47;;;;;;;;;;4958856;28;20015;-76
2022/05/23 12:32:05;;;;;;;7.80;2.95;;;;;;;;;;4974159;28;20106;-76
2022/05/23 12:34:40;;;;;;;8.07;2.83;;;;;;;;;;4974312;28;20487;-76
2022/05/23 12:37:06;;;;;;;7.20;3.30;;;;;;;;;;4976410;28;20031;-76
2022/05/23 12:39:51;;;;;;;9.80;3.35;;;;;;;;;;4976296;28;20046;-75
2022/05/23 12:42:22;;;;;;;7.88;3.70;;;;;;;;;;4957742;28;20026;-77
2022/05/23 12:45:04;;;;;;;8.63;3.00;;;;;;;;;;4975768;28;20034;-71
2022/05/23 12:47:40;;;;;;;6.38;3.20;;;;;;;;;;4958653;28;20134;-75
2022/05/23 12:50:19;;;;;;;8.65;3.22;;;;;;;;;;4958430;28;20043;-75
2022/05/23 12:52:54;;;;;;;10.48;3.63;;;;;;;;;;4976995;28;20047;-75
2022/05/23 12:55:26;;;;;;;7.63;2.97;;;;;;;;;;4974540;28;20026;-77
2022/05/23 12:58:01;;;;;;;5.43;2.60;;;;;;;;;;4967469;28;20030;-75
2022/05/23 13:00:46;;;;;;;10.20;3.20;;;;;;;;;;4977195;28;20385;-78
2022/05/23 13:03:21;;;;;;;12.38;2.58;;;;;;;;;;4977550;28;20035;-76
2022/05/23 13:06:06;;;;;;;7.35;2.15;;;;;;;;;;4977213;28;20031;-77
2022/05/23 13:08:50;;;;;;;5.60;2.47;;;;;;;;;;4976927;28;20030;-78
2022/05/23 13:11:25;;;;;;;10.10;2.40;;;;;;;;;;4977115;28;20023;-77
2022/05/23 13:13:51;;;;;;;8.93;2.42;;;;;;;;;;4977023;28;20021;-77
2022/05/23 13:16:20;;;;;;;4.55;2.30;;;;;;;;;;4976420;28;20093;-79
2022/05/23 13:24:48;;;;;;;6.70;2.95;;;;;;;;;;4977492;28;20045;-79
2022/05/23 13:27:05;;;;;;;6.10;3.22;;;;;;;;;;4976474;28;20034;-79
2022/05/23 13:29:32;;;;;;;8.23;2.90;;;;;;;;;;4976746;28;20031;-79
2022/05/23 13:32:16;;;;;;;6.07;3.10;;;;;;;;;;4976903;28;20026;-78
2022/05/23 13:34:44;;;;;;;6.90;3.00;;;;;;;;;;4976767;28;20030;-79
2022/05/23 13:37:12;;;;;;;8.80;2.80;;;;;;;;;;4976583;28;20038;-78
2022/05/23 13:39:44;;;;;;;6.93;2.75;;;;;;;;;;4976794;28;20054;-79
2022/05/23 13:42:20;;;;;;;5.00;2.92;;;;;;;;;;4975558;28;20354;-76
2022/05/23 13:44:47;;;;;;;6.53;3.55;;;;;;;;;;4974095;28;20126;-76
2022/05/23 13:47:18;;;;;;;10.30;3.75;;;;;;;;;;4974503;28;20031;-76
2022/05/23 13:49:44;;;;;;;10.52;3.83;;;;;;;;;;4957256;28;20058;-76
2022/05/23 13:52:12;;;;;;;10.27;3.90;;;;;;;;;;4975276;28;20019;-76
2022/05/23 13:54:41;;;;;;;9.60;4.90;;;;;;;;;;4976081;28;20046;-79
2022/05/23 13:57:10;;;;;;;9.13;4.75;;;;;;;;;;4975837;28;20485;-76
2022/05/23 13:59:40;;;;;;;7.18;4.82;;;;;;;;;;4964838;28;20042;-77
2022/05/23 14:02:20;;;;;;;18.33;4.97;;;;;;;;;;4960317;28;20458;-77
2022/05/23 14:04:47;;;;;;;9.80;5.25;;;;;;;;;;4963372;28;20039;-76
2022/05/23 14:07:15;;;;;;;9.93;5.18;;;;;;;;;;4967430;28;20474;-74
2022/05/23 14:09:42;;;;;;;10.93;4.88;;;;;;;;;;4948719;28;20034;-77
2022/05/23 14:12:11;;;;;;;10.00;4.32;;;;;;;;;;4954344;28;20110;-75
2022/05/23 14:14:42;;;;;;;9.93;5.25;;;;;;;;;;4964725;28;20019;-76
2022/05/23 14:17:11;;;;;;;11.02;4.60;;;;;;;;;;4971885;28;20026;-76
2022/05/23 14:19:49;;;;;;;9.48;5.10;;;;;;;;;;4970700;28;20031;-76
2022/05/23 14:22:22;;;;;;;10.30;4.95;;;;;;;;;;4972648;28;20027;-75
2022/05/23 14:24:50;;;;;;;9.20;5.00;;;;;;;;;;4970563;28;20106;-76
2022/05/23 14:27:19;;;;;;;10.93;5.30;;;;;;;;;;4971228;28;20037;-75
2022/05/23 14:29:45;;;;;;;12.20;5.18;;;;;;;;;;4968671;28;20039;-76
2022/05/23 14:32:20;;;;;;;10.82;4.80;;;;;;;;;;4965974;28;20019;-75
2022/05/23 14:34:47;;;;;;;8.00;4.53;;;;;;;;;;4967554;28;20376;-76
2022/05/23 14:37:18;;;;;;;9.82;4.50;;;;;;;;;;4968082;28;20025;-76
2022/05/23 14:39:48;;;;;;;7.63;4.10;;;;;;;;;;4968290;28;20081;-76
2022/05/23 14:42:19;;;;;;;7.15;4.05;;;;;;;;;;4970383;28;20058;-76
2022/05/23 14:44:45;;;;;;;11.70;4.28;;;;;;;;;;4970097;28;20023;-76
2022/05/23 14:47:21;;;;;;;13.45;6.22;;;;;;;;;;4971087;28;20076;-76
2022/05/23 14:50:07;;;;;;;10.23;4.80;;;;;;;;;;4973125;28;20154;-75
2022/05/23 14:52:33;;;;;;;10.65;6.15;;;;;;;;;;4969074;28;20038;-74
2022/05/23 14:55:19;;;;;;;13.00;6.65;;;;;;;;;;4970912;28;20432;-74
2022/05/23 15:00:55;;;;;;;14.73;8.45;;;;;;;;;;4963877;28;20070;-76
2022/05/23 15:03:26;;;;;;;19.60;8.80;;;;;;;;;;4967754;28;20023;-82
2022/05/23 15:05:53;;;;;;;22.33;10.10;;;;;;;;;;4963502;28;20015;-76
2022/05/23 15:08:20;;;;;;;14.52;8.60;;;;;;;;;;4962235;28;20416;-76
2022/05/23 15:10:46;;;;;;;21.60;10.15;;;;;;;;;;4968032;28;20018;-76
2022/05/23 15:13:13;;;;;;;15.02;9.73;;;;;;;;;;4967517;28;20106;-76
2022/05/23 15:15:42;;;;;;;19.27;9.85;;;;;;;;;;4968045;28;20078;-76
2022/05/23 15:18:09;;;;;;;18.33;10.13;;;;;;;;;;4965709;28;20023;-79
2022/05/23 15:20:35;;;;;;;19.73;8.85;;;;;;;;;;4961456;28;20103;-79
2022/05/23 15:23:02;;;;;;;20.83;9.68;;;;;;;;;;4960189;28;20058;-78
2022/05/23 15:25:29;;;;;;;17.73;10.18;;;;;;;;;;4964641;28;20029;-79
2022/05/23 15:27:55;;;;;;;17.63;10.25;;;;;;;;;;4962496;28;20100;-76
2022/05/23 15:30:24;;;;;;;17.88;10.40;;;;;;;;;;4959796;28;20019;-76
2022/05/23 15:32:51;;;;;;;17.10;10.45;;;;;;;;;;4965562;28;20022;-76
2022/05/23 15:35:18;;;;;;;19.77;10.15;;;;;;;;;;4959484;28;20031;-76
2022/05/23 15:37:44;;;;;;;19.20;10.45;;;;;;;;;;4963183;28;20065;-76
2022/05/23 15:40:12;;;;;;;19.35;11.82;;;;;;;;;;4967888;28;20024;-77
2022/05/23 15:42:39;;;;;;;16.50;10.25;;;;;;;;;;4960429;28;20374;-79
2022/05/23 15:45:11;;;;;;;20.63;11.23;;;;;;;;;;4963347;28;20059;-78
2022/05/23 15:47:38;;;;;;;;;;;;;;;;;;4965780;28;20039;-77
2022/05/23 15:50:04;;;;;;;21.45;11.02;;;;;;;;;;4965216;28;19918;-77
2022/05/23 15:52:31;;;;;;;17.35;10.65;;;;;;;;;;4959358;28;20035;-77
2022/05/23 15:54:57;;;;;;;16.60;10.90;;;;;;;;;;4963262;28;20027;-78
2022/05/23 15:57:44;;;;;;;19.40;12.35;;;;;;;;;;4946498;28;20398;-78
2022/05/23 16:00:12;;;;;;;22.23;11.93;;;;;;;;;;4967943;28;20023;-78